sensor_id;sensor_type;location;lat;lon;timestamp;temperature;humidity
4759;DHT22;2393;50.560;12.636;2023-03-01T00:00:06;-7.40;99.90
4759;DHT22;2393;50.560;12.636;2023-03-01T00:02:37;-7.30;99.90
4759;DHT22;2393;50.560;12.636;2023-03-01T00:05:06;-7.30;99.90
4759;DHT22;2393;50.560;12.636;2023-03-01T00:07:34;-7.30;99.90
4759;DHT22;2393;50.560;12.636;2023-03-01T00:10:02;-7.40;99.90
4759;DHT22;2393;50.560;12.636;2023-03-01T00:12:32;-7.50;99.90
4759;DHT22;2393;50.560;12.636;2023-03-01T00:15:00;-7.50;99.90
4759;DHT22;2393;50.560;12.636;2023-03-01T00:17:28;-7.60;99.90
4759;DHT22;2393;50.560;12.636;2023-03-01T00:19:56;-7.60;99.90
4759;DHT22;2393;50.560;12.636;2023-03-01T00:22:24;-7.60;99.90
4759;DHT22;2393;50.560;12.636;2023-03-01T00:24:58;-7.60;99.90
4759;DHT22;2393;50.560;12.636;2023-03-01T00:27:26;-7.60;99.90
4759;DHT22;2393;50.560;12.636;2023-03-01T00:29:55;-7.70;99.90
4759;DHT22;2393;50.560;12.636;2023-03-01T00:32:24;-7.80;99.90
4759;DHT22;2393;50.560;12.636;2023-03-01T00:34:52;-7.80;99.90
4759;DHT22;2393;50.560;12.636;2023-03-01T00:37:23;-7.90;99.90
4759;DHT22;2393;50.560;12.636;2023-03-01T00:39:51;-7.90;99.90
4759;DHT22;2393;50.560;12.636;2023-03-01T00:42:19;-7.90;99.90
4759;DHT22;2393;50.560;12.636;2023-03-01T00:44:47;-7.90;99.90
4759;DHT22;2393;50.560;12.636;2023-03-01T00:47:16;-8.00;99.90
4759;DHT22;2393;50.560;12.636;2023-03-01T00:49:44;-8.00;99.90
4759;DHT22;2393;50.560;12.636;2023-03-01T00:52:12;-8.00;99.90
4759;DHT22;2393;50.560;12.636;2023-03-01T00:54:40;-8.10;99.90
4759;DHT22;2393;50.560;12.636;2023-03-01T00:57:08;-8.10;99.90
4759;DHT22;2393;50.560;12.636;2023-03-01T00:59:36;-8.10;99.90
4759;DHT22;2393;50.560;12.636;2023-03-01T01:02:03;-8.10;99.90
4759;DHT22;2393;50.560;12.636;2023-03-01T01:04:33;-8.20;99.90
4759;DHT22;2393;50.560;12.636;2023-03-01T01:07:01;-8.10;99.90
4759;DHT22;2393;50.560;12.636;2023-03-01T01:09:28;-8.10;99.90
4759;DHT22;2393;50.560;12.636;2023-03-01T01:11:56;-8.10;99.90
4759;DHT22;2393;50.560;12.636;2023-03-01T01:14:24;-8.10;99.90
4759;DHT22;2393;50.560;12.636;2023-03-01T01:16:53;-8.10;99.90
4759;DHT22;2393;50.560;12.636;2023-03-01T01:19:23;-8.10;99.90
4759;DHT22;2393;50.560;12.636;2023-03-01T01:21:52;-8.10;99.90
4759;DHT22;2393;50.560;12.636;2023-03-01T01:24:20;-8.10;99.90
4759;DHT22;2393;50.560;12.636;2023-03-01T01:26:49;-8.10;99.90
4759;DHT22;2393;50.560;12.636;2023-03-01T01:29:17;-8.20;99.90
4759;DHT22;2393;50.560;12.636;2023-03-01T01:31:45;-8.20;99.90
4759;DHT22;2393;50.560;12.636;2023-03-01T01:34:15;-8.20;99.90
4759;DHT22;2393;50.560;12.636;2023-03-01T01:36:46;-8.30;99.90
4759;DHT22;2393;50.560;12.636;2023-03-01T01:39:16;-8.40;99.90
4759;DHT22;2393;50.560;12.636;2023-03-01T01:41:45;-8.40;99.90
4759;DHT22;2393;50.560;12.636;2023-03-01T01:44:16;-8.40;99.90
4759;DHT22;2393;50.560;12.636;2023-03-01T01:46:48;-8.40;99.90
4759;DHT22;2393;50.560;12.636;2023-03-01T01:49:24;-8.50;99.90
4759;DHT22;2393;50.560;12.636;2023-03-01T01:52:00;-8.50;99.90
4759;DHT22;2393;50.560;12.636;2023-03-01T01:54:37;-8.60;99.90
4759;DHT22;2393;50.560;12.636;2023-03-01T01:57:11;-8.60;99.90
4759;DHT22;2393;50.560;12.636;2023-03-01T01:59:43;-8.60;99.90
4759;DHT22;2393;50.560;12.636;2023-03-01T02:02:13;-8.60;99.90
4759;DHT22;2393;50.560;12.636;2023-03-01T02:04:42;-8.60;99.90
4759;DHT22;2393;50.560;12.636;2023-03-01T02:07:15;-8.70;99.90
4759;DHT22;2393;50.560;12.636;2023-03-01T02:09:47;-8.70;99.90
4759;DHT22;2393;50.560;12.636;2023-03-01T02:12:17;-8.70;99.90
4759;DHT22;2393;50.560;12.636;2023-03-01T02:14:46;-8.70;99.90
4759;DHT22;2393;50.560;12.636;2023-03-01T02:17:15;-8.80;99.90
4759;DHT22;2393;50.560;12.636;2023-03-01T02:19:51;-8.80;99.90
4759;DHT22;2393;50.560;12.636;2023-03-01T02:22:24;-8.80;99.90
4759;DHT22;2393;50.560;12.636;2023-03-01T02:25:04;-8.90;99.90
4759;DHT22;2393;50.560;12.636;2023-03-01T02:27:40;-9.00;99.90
4759;DHT22;2393;50.560;12.636;2023-03-01T02:30:12;-9.10;99.90
4759;DHT22;2393;50.560;12.636;2023-03-01T02:32:41;-9.20;99.90
4759;DHT22;2393;50.560;12.636;2023-03-01T02:35:11;-9.20;99.90
4759;DHT22;2393;50.560;12.636;2023-03-01T02:37:41;-9.20;99.90
4759;DHT22;2393;50.560;12.636;2023-03-01T02:40:13;-9.20;99.90
4759;DHT22;2393;50.560;12.636;2023-03-01T02:42:49;-9.20;99.90
4759;DHT22;2393;50.560;12.636;2023-03-01T02:45:20;-9.20;99.90
4759;DHT22;2393;50.560;12.636;2023-03-01T02:47:47;-9.20;99.90
4759;DHT22;2393;50.560;12.636;2023-03-01T02:50:44;-9.30;99.90
4759;DHT22;2393;50.560;12.636;2023-03-01T02:53:17;-9.20;99.90
4759;DHT22;2393;50.560;12.636;2023-03-01T02:55:49;-9.20;99.90
4759;DHT22;2393;50.560;12.636;2023-03-01T02:58:17;-9.20;99.90
4759;DHT22;2393;50.560;12.636;2023-03-01T03:00:46;-9.20;99.90
4759;DHT22;2393;50.560;12.636;2023-03-01T03:03:17;-9.30;99.90
4759;DHT22;2393;50.560;12.636;2023-03-01T03:05:47;-9.40;99.90
4759;DHT22;2393;50.560;12.636;2023-03-01T03:08:15;-9.40;99.90
4759;DHT22;2393;50.560;12.636;2023-03-01T03:10:51;-9.40;99.90
4759;DHT22;2393;50.560;12.636;2023-03-01T03:13:19;-9.40;99.90
4759;DHT22;2393;50.560;12.636;2023-03-01T03:15:50;-9.50;99.90
4759;DHT22;2393;50.560;12.636;2023-03-01T03:18:18;-9.50;99.90
4759;DHT22;2393;50.560;12.636;2023-03-01T03:20:46;-9.50;99.90
4759;DHT22;2393;50.560;12.636;2023-03-01T03:23:14;-9.50;99.90
4759;DHT22;2393;50.560;12.636;2023-03-01T03:25:42;-9.70;99.90
4759;DHT22;2393;50.560;12.636;2023-03-01T03:28:10;-9.70;99.90
4759;DHT22;2393;50.560;12.636;2023-03-01T03:30:40;-9.70;99.90
4759;DHT22;2393;50.560;12.636;2023-03-01T03:33:10;-9.70;99.90
4759;DHT22;2393;50.560;12.636;2023-03-01T03:35:41;-9.70;99.90
4759;DHT22;2393;50.560;12.636;2023-03-01T03:38:11;-9.70;99.90
4759;DHT22;2393;50.560;12.636;2023-03-01T03:40:45;-9.80;99.90
4759;DHT22;2393;50.560;12.636;2023-03-01T03:43:14;-9.80;99.90
4759;DHT22;2393;50.560;12.636;2023-03-01T03:45:43;-9.80;99.90
4759;DHT22;2393;50.560;12.636;2023-03-01T03:48:13;-9.70;99.90
4759;DHT22;2393;50.560;12.636;2023-03-01T03:50:46;-9.70;99.90
4759;DHT22;2393;50.560;12.636;2023-03-01T03:53:14;-9.70;99.90
4759;DHT22;2393;50.560;12.636;2023-03-01T03:55:42;-9.70;99.90
4759;DHT22;2393;50.560;12.636;2023-03-01T03:58:11;-9.70;99.90
4759;DHT22;2393;50.560;12.636;2023-03-01T04:00:40;-9.70;99.90
4759;DHT22;2393;50.560;12.636;2023-03-01T04:03:10;-9.70;99.90
4759;DHT22;2393;50.560;12.636;2023-03-01T04:05:40;-9.90;99.90
4759;DHT22;2393;50.560;12.636;2023-03-01T04:08:08;-9.90;99.90
4759;DHT22;2393;50.560;12.636;2023-03-01T04:10:38;-10.00;99.90
4759;DHT22;2393;50.560;12.636;2023-03-01T04:13:08;-10.10;99.90
4759;DHT22;2393;50.560;12.636;2023-03-01T04:15:37;-10.10;99.90
4759;DHT22;2393;50.560;12.636;2023-03-01T04:18:06;-10.10;99.90
4759;DHT22;2393;50.560;12.636;2023-03-01T04:20:35;-10.10;99.90
4759;DHT22;2393;50.560;12.636;2023-03-01T04:23:06;-10.10;99.90
4759;DHT22;2393;50.560;12.636;2023-03-01T04:25:45;-10.10;99.90
4759;DHT22;2393;50.560;12.636;2023-03-01T04:28:13;-10.20;99.90
4759;DHT22;2393;50.560;12.636;2023-03-01T04:30:41;-10.20;99.90
4759;DHT22;2393;50.560;12.636;2023-03-01T04:33:10;-10.30;99.90
4759;DHT22;2393;50.560;12.636;2023-03-01T04:35:38;-10.30;99.90
4759;DHT22;2393;50.560;12.636;2023-03-01T04:38:08;-10.30;99.90
4759;DHT22;2393;50.560;12.636;2023-03-01T04:40:37;-10.30;99.90
4759;DHT22;2393;50.560;12.636;2023-03-01T04:43:05;-10.30;99.90
4759;DHT22;2393;50.560;12.636;2023-03-01T04:45:33;-10.30;99.90
4759;DHT22;2393;50.560;12.636;2023-03-01T04:48:02;-10.20;99.90
4759;DHT22;2393;50.560;12.636;2023-03-01T04:50:30;-10.20;99.90
4759;DHT22;2393;50.560;12.636;2023-03-01T04:52:58;-10.10;99.90
4759;DHT22;2393;50.560;12.636;2023-03-01T04:55:28;-10.10;99.90
4759;DHT22;2393;50.560;12.636;2023-03-01T04:57:56;-10.20;99.90
4759;DHT22;2393;50.560;12.636;2023-03-01T05:00:24;-10.20;99.90
4759;DHT22;2393;50.560;12.636;2023-03-01T05:02:53;-10.20;99.90
4759;DHT22;2393;50.560;12.636;2023-03-01T05:05:24;-10.30;99.90
4759;DHT22;2393;50.560;12.636;2023-03-01T05:07:55;-10.30;99.90
4759;DHT22;2393;50.560;12.636;2023-03-01T05:10:23;-10.30;99.90
4759;DHT22;2393;50.560;12.636;2023-03-01T05:12:53;-10.30;99.90
4759;DHT22;2393;50.560;12.636;2023-03-01T05:15:21;-10.30;99.90
4759;DHT22;2393;50.560;12.636;2023-03-01T05:17:52;-10.20;99.90
4759;DHT22;2393;50.560;12.636;2023-03-01T05:20:22;-10.20;99.90
4759;DHT22;2393;50.560;12.636;2023-03-01T05:22:51;-10.20;99.90
4759;DHT22;2393;50.560;12.636;2023-03-01T05:25:19;-10.20;99.90
4759;DHT22;2393;50.560;12.636;2023-03-01T05:27:48;-10.20;99.90
4759;DHT22;2393;50.560;12.636;2023-03-01T05:30:18;-10.20;99.90
4759;DHT22;2393;50.560;12.636;2023-03-01T05:32:48;-10.20;99.90
4759;DHT22;2393;50.560;12.636;2023-03-01T05:35:17;-10.20;99.90
4759;DHT22;2393;50.560;12.636;2023-03-01T05:37:48;-10.20;99.90
4759;DHT22;2393;50.560;12.636;2023-03-01T05:40:18;-10.20;99.90
4759;DHT22;2393;50.560;12.636;2023-03-01T05:42:48;-10.10;99.90
4759;DHT22;2393;50.560;12.636;2023-03-01T05:45:18;-10.10;99.90
4759;DHT22;2393;50.560;12.636;2023-03-01T05:47:47;-10.10;99.90
4759;DHT22;2393;50.560;12.636;2023-03-01T05:50:18;-10.20;99.90
4759;DHT22;2393;50.560;12.636;2023-03-01T05:52:48;-10.20;99.90
4759;DHT22;2393;50.560;12.636;2023-03-01T05:55:17;-10.30;99.90
4759;DHT22;2393;50.560;12.636;2023-03-01T05:57:46;-10.30;99.90
4759;DHT22;2393;50.560;12.636;2023-03-01T06:00:16;-10.30;99.90
4759;DHT22;2393;50.560;12.636;2023-03-01T06:02:46;-10.30;99.90
4759;DHT22;2393;50.560;12.636;2023-03-01T06:05:14;-10.30;99.90
4759;DHT22;2393;50.560;12.636;2023-03-01T06:07:43;-10.30;99.90
4759;DHT22;2393;50.560;12.636;2023-03-01T06:10:12;-10.40;99.90
4759;DHT22;2393;50.560;12.636;2023-03-01T06:12:41;-10.40;99.90
4759;DHT22;2393;50.560;12.636;2023-03-01T06:15:11;-10.30;99.90
4759;DHT22;2393;50.560;12.636;2023-03-01T06:17:42;-10.30;99.90
4759;DHT22;2393;50.560;12.636;2023-03-01T06:20:13;-10.20;99.90
4759;DHT22;2393;50.560;12.636;2023-03-01T06:22:42;-10.20;99.90
4759;DHT22;2393;50.560;12.636;2023-03-01T06:25:12;-10.20;99.90
4759;DHT22;2393;50.560;12.636;2023-03-01T06:27:41;-10.10;99.90
4759;DHT22;2393;50.560;12.636;2023-03-01T06:30:11;-10.00;99.90
4759;DHT22;2393;50.560;12.636;2023-03-01T06:32:41;-9.70;99.90
4759;DHT22;2393;50.560;12.636;2023-03-01T06:35:11;-9.10;99.90
4759;DHT22;2393;50.560;12.636;2023-03-01T06:37:40;-8.30;99.90
4759;DHT22;2393;50.560;12.636;2023-03-01T06:40:10;-7.40;99.90
4759;DHT22;2393;50.560;12.636;2023-03-01T06:42:41;-6.50;99.90
4759;DHT22;2393;50.560;12.636;2023-03-01T06:45:10;-6.00;99.90
4759;DHT22;2393;50.560;12.636;2023-03-01T06:47:38;-5.40;99.90
4759;DHT22;2393;50.560;12.636;2023-03-01T06:50:08;-4.80;99.90
4759;DHT22;2393;50.560;12.636;2023-03-01T06:52:38;-4.40;99.90
4759;DHT22;2393;50.560;12.636;2023-03-01T06:55:06;-4.10;99.90
4759;DHT22;2393;50.560;12.636;2023-03-01T06:57:35;-3.60;99.90
4759;DHT22;2393;50.560;12.636;2023-03-01T07:00:03;-2.40;99.90
4759;DHT22;2393;50.560;12.636;2023-03-01T07:02:32;-1.00;99.90
4759;DHT22;2393;50.560;12.636;2023-03-01T07:05:00;0.20;99.90
4759;DHT22;2393;50.560;12.636;2023-03-01T07:07:28;0.90;99.60
4759;DHT22;2393;50.560;12.636;2023-03-01T07:09:57;1.80;97.80
4759;DHT22;2393;50.560;12.636;2023-03-01T07:12:25;2.70;95.10
4759;DHT22;2393;50.560;12.636;2023-03-01T07:14:53;3.50;92.70
4759;DHT22;2393;50.560;12.636;2023-03-01T07:17:21;4.30;92.00
4759;DHT22;2393;50.560;12.636;2023-03-01T07:19:50;4.80;91.30
4759;DHT22;2393;50.560;12.636;2023-03-01T07:22:18;4.90;90.90
4759;DHT22;2393;50.560;12.636;2023-03-01T07:24:46;4.60;90.10
4759;DHT22;2393;50.560;12.636;2023-03-01T07:27:15;4.30;90.00
4759;DHT22;2393;50.560;12.636;2023-03-01T07:29:43;4.10;90.60
4759;DHT22;2393;50.560;12.636;2023-03-01T07:32:11;4.10;90.70
4759;DHT22;2393;50.560;12.636;2023-03-01T07:34:39;4.80;91.60
4759;DHT22;2393;50.560;12.636;2023-03-01T07:37:07;5.60;91.70
4759;DHT22;2393;50.560;12.636;2023-03-01T07:39:36;6.40;91.50
4759;DHT22;2393;50.560;12.636;2023-03-01T07:42:04;7.20;90.60
4759;DHT22;2393;50.560;12.636;2023-03-01T07:44:34;7.90;90.00
4759;DHT22;2393;50.560;12.636;2023-03-01T07:47:02;8.60;88.80
4759;DHT22;2393;50.560;12.636;2023-03-01T07:49:30;9.20;86.50
4759;DHT22;2393;50.560;12.636;2023-03-01T07:51:58;9.80;84.30
4759;DHT22;2393;50.560;12.636;2023-03-01T07:54:26;10.30;81.20
4759;DHT22;2393;50.560;12.636;2023-03-01T07:56:56;10.70;79.50
4759;DHT22;2393;50.560;12.636;2023-03-01T07:59:24;11.00;77.90
4759;DHT22;2393;50.560;12.636;2023-03-01T08:01:57;11.30;77.60
4759;DHT22;2393;50.560;12.636;2023-03-01T08:04:25;11.50;76.40
4759;DHT22;2393;50.560;12.636;2023-03-01T08:06:54;11.70;75.00
4759;DHT22;2393;50.560;12.636;2023-03-01T08:09:22;11.80;75.00
4759;DHT22;2393;50.560;12.636;2023-03-01T08:11:50;11.90;74.20
4759;DHT22;2393;50.560;12.636;2023-03-01T08:14:18;12.00;74.20
4759;DHT22;2393;50.560;12.636;2023-03-01T08:16:49;12.20;74.30
4759;DHT22;2393;50.560;12.636;2023-03-01T08:19:18;12.30;73.50
4759;DHT22;2393;50.560;12.636;2023-03-01T08:21:46;12.40;73.40
4759;DHT22;2393;50.560;12.636;2023-03-01T08:24:14;12.50;73.50
4759;DHT22;2393;50.560;12.636;2023-03-01T08:26:42;12.50;73.40
4759;DHT22;2393;50.560;12.636;2023-03-01T08:29:10;12.60;73.20
4759;DHT22;2393;50.560;12.636;2023-03-01T08:31:39;12.60;73.70
4759;DHT22;2393;50.560;12.636;2023-03-01T08:34:11;12.80;74.10
4759;DHT22;2393;50.560;12.636;2023-03-01T08:36:42;13.00;73.80
4759;DHT22;2393;50.560;12.636;2023-03-01T08:39:12;13.10;73.30
4759;DHT22;2393;50.560;12.636;2023-03-01T08:41:41;13.20;73.10
4759;DHT22;2393;50.560;12.636;2023-03-01T08:44:10;13.10;72.70
4759;DHT22;2393;50.560;12.636;2023-03-01T08:46:41;13.10;73.50
4759;DHT22;2393;50.560;12.636;2023-03-01T08:49:11;13.10;73.70
4759;DHT22;2393;50.560;12.636;2023-03-01T08:51:41;13.20;73.80
4759;DHT22;2393;50.560;12.636;2023-03-01T08:54:12;12.70;72.50
4759;DHT22;2393;50.560;12.636;2023-03-01T08:56:41;12.60;73.80
4759;DHT22;2393;50.560;12.636;2023-03-01T08:59:10;11.90;74.40
4759;DHT22;2393;50.560;12.636;2023-03-01T09:01:38;11.70;75.10
4759;DHT22;2393;50.560;12.636;2023-03-01T09:04:06;11.70;76.40
4759;DHT22;2393;50.560;12.636;2023-03-01T09:06:34;11.60;76.60
4759;DHT22;2393;50.560;12.636;2023-03-01T09:09:04;12.00;78.00
4759;DHT22;2393;50.560;12.636;2023-03-01T09:11:34;12.30;78.10
4759;DHT22;2393;50.560;12.636;2023-03-01T09:14:05;12.00;75.40
4759;DHT22;2393;50.560;12.636;2023-03-01T09:16:33;11.70;77.60
4759;DHT22;2393;50.560;12.636;2023-03-01T09:19:03;11.80;76.80
4759;DHT22;2393;50.560;12.636;2023-03-01T09:21:31;11.10;77.00
4759;DHT22;2393;50.560;12.636;2023-03-01T09:24:12;10.40;77.70
4759;DHT22;2393;50.560;12.636;2023-03-01T09:26:40;9.90;79.70
4759;DHT22;2393;50.560;12.636;2023-03-01T09:29:08;9.40;81.50
4759;DHT22;2393;50.560;12.636;2023-03-01T09:31:37;9.10;82.80
4759;DHT22;2393;50.560;12.636;2023-03-01T09:34:06;9.60;84.50
4759;DHT22;2393;50.560;12.636;2023-03-01T09:36:34;9.90;82.20
4759;DHT22;2393;50.560;12.636;2023-03-01T09:39:03;10.20;81.80
4759;DHT22;2393;50.560;12.636;2023-03-01T09:41:46;10.50;79.90
4759;DHT22;2393;50.560;12.636;2023-03-01T09:44:31;10.50;81.10
4759;DHT22;2393;50.560;12.636;2023-03-01T09:47:01;11.00;82.10
4759;DHT22;2393;50.560;12.636;2023-03-01T09:49:31;11.50;80.80
4759;DHT22;2393;50.560;12.636;2023-03-01T09:52:03;11.80;78.80
4759;DHT22;2393;50.560;12.636;2023-03-01T09:54:34;11.90;79.10
4759;DHT22;2393;50.560;12.636;2023-03-01T09:57:14;12.20;77.70
4759;DHT22;2393;50.560;12.636;2023-03-01T09:59:58;12.30;77.90
4759;DHT22;2393;50.560;12.636;2023-03-01T10:02:35;12.40;78.70
4759;DHT22;2393;50.560;12.636;2023-03-01T10:05:19;12.70;79.20
4759;DHT22;2393;50.560;12.636;2023-03-01T10:07:56;12.90;77.70
4759;DHT22;2393;50.560;12.636;2023-03-01T10:10:27;13.20;77.80
4759;DHT22;2393;50.560;12.636;2023-03-01T10:12:57;13.30;77.80
4759;DHT22;2393;50.560;12.636;2023-03-01T10:15:35;13.40;78.10
4759;DHT22;2393;50.560;12.636;2023-03-01T10:18:12;13.10;76.60
4759;DHT22;2393;50.560;12.636;2023-03-01T10:20:45;13.00;77.30
4759;DHT22;2393;50.560;12.636;2023-03-01T10:23:14;13.10;78.80
4759;DHT22;2393;50.560;12.636;2023-03-01T10:25:50;13.00;78.40
4759;DHT22;2393;50.560;12.636;2023-03-01T10:28:27;12.50;76.20
4759;DHT22;2393;50.560;12.636;2023-03-01T10:30:58;11.50;79.20
4759;DHT22;2393;50.560;12.636;2023-03-01T10:33:30;11.30;79.60
4759;DHT22;2393;50.560;12.636;2023-03-01T10:35:59;11.60;81.80
4759;DHT22;2393;50.560;12.636;2023-03-01T10:38:31;11.90;81.00
4759;DHT22;2393;50.560;12.636;2023-03-01T10:41:04;12.20;80.30
4759;DHT22;2393;50.560;12.636;2023-03-01T10:43:44;12.10;78.70
4759;DHT22;2393;50.560;12.636;2023-03-01T10:46:24;12.20;79.10
4759;DHT22;2393;50.560;12.636;2023-03-01T10:49:14;11.40;79.60
4759;DHT22;2393;50.560;12.636;2023-03-01T10:51:43;12.00;82.60
4759;DHT22;2393;50.560;12.636;2023-03-01T10:54:18;12.30;79.80
4759;DHT22;2393;50.560;12.636;2023-03-01T10:56:49;12.40;80.80
4759;DHT22;2393;50.560;12.636;2023-03-01T10:59:26;12.60;79.30
4759;DHT22;2393;50.560;12.636;2023-03-01T11:02:08;12.20;77.80
4759;DHT22;2393;50.560;12.636;2023-03-01T11:04:59;11.90;77.80
4759;DHT22;2393;50.560;12.636;2023-03-01T11:07:28;11.80;79.40
4759;DHT22;2393;50.560;12.636;2023-03-01T11:09:56;12.10;81.50
4759;DHT22;2393;50.560;12.636;2023-03-01T11:12:24;12.40;81.80
4759;DHT22;2393;50.560;12.636;2023-03-01T11:14:57;12.80;81.40
4759;DHT22;2393;50.560;12.636;2023-03-01T11:17:27;13.10;82.20
4759;DHT22;2393;50.560;12.636;2023-03-01T11:20:10;13.50;82.50
4759;DHT22;2393;50.560;12.636;2023-03-01T11:22:46;13.90;81.20
4759;DHT22;2393;50.560;12.636;2023-03-01T11:25:17;14.10;80.30
4759;DHT22;2393;50.560;12.636;2023-03-01T11:27:47;14.10;81.20
4759;DHT22;2393;50.560;12.636;2023-03-01T11:30:21;14.20;80.00
4759;DHT22;2393;50.560;12.636;2023-03-01T11:33:01;14.20;80.30
4759;DHT22;2393;50.560;12.636;2023-03-01T11:35:32;14.20;79.80
4759;DHT22;2393;50.560;12.636;2023-03-01T11:38:14;14.20;80.10
4759;DHT22;2393;50.560;12.636;2023-03-01T11:40:47;14.20;81.50
4759;DHT22;2393;50.560;12.636;2023-03-01T11:43:25;14.20;82.30
4759;DHT22;2393;50.560;12.636;2023-03-01T11:46:27;14.40;81.20
4759;DHT22;2393;50.560;12.636;2023-03-01T11:49:12;14.30;80.10
4759;DHT22;2393;50.560;12.636;2023-03-01T11:51:49;14.20;81.00
4759;DHT22;2393;50.560;12.636;2023-03-01T11:54:30;14.00;81.10
4759;DHT22;2393;50.560;12.636;2023-03-01T11:57:04;14.00;82.20
4759;DHT22;2393;50.560;12.636;2023-03-01T12:03:24;14.00;80.90
4759;DHT22;2393;50.560;12.636;2023-03-01T12:09:19;13.70;81.50
4759;DHT22;2393;50.560;12.636;2023-03-01T12:12:06;13.50;80.80
4759;DHT22;2393;50.560;12.636;2023-03-01T12:18:00;13.40;79.60
4759;DHT22;2393;50.560;12.636;2023-03-01T12:20:39;13.20;83.00
4759;DHT22;2393;50.560;12.636;2023-03-01T12:23:25;13.10;82.50
4759;DHT22;2393;50.560;12.636;2023-03-01T12:26:01;13.20;83.40
4759;DHT22;2393;50.560;12.636;2023-03-01T12:28:44;13.20;83.20
4759;DHT22;2393;50.560;12.636;2023-03-01T12:31:37;13.20;83.80
4759;DHT22;2393;50.560;12.636;2023-03-01T12:34:19;13.20;83.80
4759;DHT22;2393;50.560;12.636;2023-03-01T12:37:13;13.20;83.30
4759;DHT22;2393;50.560;12.636;2023-03-01T12:39:55;13.20;84.00
4759;DHT22;2393;50.560;12.636;2023-03-01T12:42:31;13.20;83.60
4759;DHT22;2393;50.560;12.636;2023-03-01T12:45:39;13.30;84.60
4759;DHT22;2393;50.560;12.636;2023-03-01T12:48:24;13.30;83.90
4759;DHT22;2393;50.560;12.636;2023-03-01T12:50:59;13.30;84.40
4759;DHT22;2393;50.560;12.636;2023-03-01T12:53:34;13.40;84.20
4759;DHT22;2393;50.560;12.636;2023-03-01T12:56:06;13.30;83.20
4759;DHT22;2393;50.560;12.636;2023-03-01T12:58:40;13.20;83.20
4759;DHT22;2393;50.560;12.636;2023-03-01T13:01:22;13.10;84.60
4759;DHT22;2393;50.560;12.636;2023-03-01T13:04:14;13.10;84.70
4759;DHT22;2393;50.560;12.636;2023-03-01T13:06:52;13.00;84.40
4759;DHT22;2393;50.560;12.636;2023-03-01T13:09:30;13.00;84.30
4759;DHT22;2393;50.560;12.636;2023-03-01T13:11:59;13.00;85.00
4759;DHT22;2393;50.560;12.636;2023-03-01T13:14:46;12.80;84.00
4759;DHT22;2393;50.560;12.636;2023-03-01T13:17:31;12.60;84.70
4759;DHT22;2393;50.560;12.636;2023-03-01T13:20:00;12.30;83.40
4759;DHT22;2393;50.560;12.636;2023-03-01T13:22:30;12.00;84.70
4759;DHT22;2393;50.560;12.636;2023-03-01T13:25:13;11.60;85.80
4759;DHT22;2393;50.560;12.636;2023-03-01T13:27:41;11.30;86.30
4759;DHT22;2393;50.560;12.636;2023-03-01T13:30:41;10.90;85.70
4759;DHT22;2393;50.560;12.636;2023-03-01T13:33:41;10.70;87.80
4759;DHT22;2393;50.560;12.636;2023-03-01T13:36:47;10.40;87.30
4759;DHT22;2393;50.560;12.636;2023-03-01T13:39:30;10.40;89.50
4759;DHT22;2393;50.560;12.636;2023-03-01T13:42:25;10.10;87.90
4759;DHT22;2393;50.560;12.636;2023-03-01T13:44:54;9.60;90.00
4759;DHT22;2393;50.560;12.636;2023-03-01T13:47:22;9.30;90.10
4759;DHT22;2393;50.560;12.636;2023-03-01T13:49:55;9.10;90.80
4759;DHT22;2393;50.560;12.636;2023-03-01T13:52:36;8.60;91.00
4759;DHT22;2393;50.560;12.636;2023-03-01T13:55:19;8.20;92.70
4759;DHT22;2393;50.560;12.636;2023-03-01T13:57:51;7.90;92.20
4759;DHT22;2393;50.560;12.636;2023-03-01T14:00:27;8.00;93.70
4759;DHT22;2393;50.560;12.636;2023-03-01T14:03:09;8.10;93.20
4759;DHT22;2393;50.560;12.636;2023-03-01T14:05:39;8.30;93.40
4759;DHT22;2393;50.560;12.636;2023-03-01T14:08:22;8.40;93.80
4759;DHT22;2393;50.560;12.636;2023-03-01T14:11:07;8.50;93.70
4759;DHT22;2393;50.560;12.636;2023-03-01T14:13:59;8.60;93.40
4759;DHT22;2393;50.560;12.636;2023-03-01T14:16:38;8.60;93.90
4759;DHT22;2393;50.560;12.636;2023-03-01T14:19:16;8.60;93.70
4759;DHT22;2393;50.560;12.636;2023-03-01T14:22:00;8.50;93.70
4759;DHT22;2393;50.560;12.636;2023-03-01T14:24:32;8.60;93.70
4759;DHT22;2393;50.560;12.636;2023-03-01T14:27:02;8.40;93.60
4759;DHT22;2393;50.560;12.636;2023-03-01T14:29:36;8.20;94.00
4759;DHT22;2393;50.560;12.636;2023-03-01T14:32:15;8.30;94.10
4759;DHT22;2393;50.560;12.636;2023-03-01T14:34:47;8.30;94.20
4759;DHT22;2393;50.560;12.636;2023-03-01T14:37:21;8.40;93.90
4759;DHT22;2393;50.560;12.636;2023-03-01T14:39:50;8.50;94.10
4759;DHT22;2393;50.560;12.636;2023-03-01T14:42:19;8.50;94.30
4759;DHT22;2393;50.560;12.636;2023-03-01T14:44:50;8.40;93.60
4759;DHT22;2393;50.560;12.636;2023-03-01T14:47:25;8.20;93.70
4759;DHT22;2393;50.560;12.636;2023-03-01T14:49:58;8.10;94.70
4759;DHT22;2393;50.560;12.636;2023-03-01T14:52:33;8.10;94.70
4759;DHT22;2393;50.560;12.636;2023-03-01T14:55:05;8.10;94.70
4759;DHT22;2393;50.560;12.636;2023-03-01T14:57:34;8.00;95.20
4759;DHT22;2393;50.560;12.636;2023-03-01T15:00:07;7.70;94.40
4759;DHT22;2393;50.560;12.636;2023-03-01T15:02:35;7.60;95.10
4759;DHT22;2393;50.560;12.636;2023-03-01T15:05:08;7.50;95.20
4759;DHT22;2393;50.560;12.636;2023-03-01T15:07:39;7.20;95.10
4759;DHT22;2393;50.560;12.636;2023-03-01T15:10:17;7.00;95.50
4759;DHT22;2393;50.560;12.636;2023-03-01T15:12:47;6.50;96.30
4759;DHT22;2393;50.560;12.636;2023-03-01T15:15:34;6.50;96.90
4759;DHT22;2393;50.560;12.636;2023-03-01T15:18:11;6.50;96.90
4759;DHT22;2393;50.560;12.636;2023-03-01T15:20:41;6.40;97.00
4759;DHT22;2393;50.560;12.636;2023-03-01T15:23:19;6.30;96.90
4759;DHT22;2393;50.560;12.636;2023-03-01T15:25:48;6.10;97.00
4759;DHT22;2393;50.560;12.636;2023-03-01T15:28:25;5.90;97.30
4759;DHT22;2393;50.560;12.636;2023-03-01T15:31:00;5.90;97.70
4759;DHT22;2393;50.560;12.636;2023-03-01T15:33:35;5.80;97.70
4759;DHT22;2393;50.560;12.636;2023-03-01T15:36:33;5.70;98.00
4759;DHT22;2393;50.560;12.636;2023-03-01T15:39:04;5.20;98.40
4759;DHT22;2393;50.560;12.636;2023-03-01T15:41:47;4.60;99.30
4759;DHT22;2393;50.560;12.636;2023-03-01T15:44:17;4.40;99.90
4759;DHT22;2393;50.560;12.636;2023-03-01T15:46:47;4.20;99.90
4759;DHT22;2393;50.560;12.636;2023-03-01T15:49:30;3.90;99.90
4759;DHT22;2393;50.560;12.636;2023-03-01T15:52:03;3.80;99.90
4759;DHT22;2393;50.560;12.636;2023-03-01T15:54:32;3.70;99.90
4759;DHT22;2393;50.560;12.636;2023-03-01T15:57:01;3.60;99.90
4759;DHT22;2393;50.560;12.636;2023-03-01T15:59:29;3.40;99.90
4759;DHT22;2393;50.560;12.636;2023-03-01T16:01:59;3.20;99.90
4759;DHT22;2393;50.560;12.636;2023-03-01T16:04:28;3.20;99.90
4759;DHT22;2393;50.560;12.636;2023-03-01T16:06:56;3.10;99.90
4759;DHT22;2393;50.560;12.636;2023-03-01T16:09:25;3.20;99.90
4759;DHT22;2393;50.560;12.636;2023-03-01T16:11:53;3.10;99.90
4759;DHT22;2393;50.560;12.636;2023-03-01T16:14:21;3.20;99.90
4759;DHT22;2393;50.560;12.636;2023-03-01T16:16:50;3.20;99.90
4759;DHT22;2393;50.560;12.636;2023-03-01T16:19:19;3.30;99.90
4759;DHT22;2393;50.560;12.636;2023-03-01T16:21:47;3.30;99.90
4759;DHT22;2393;50.560;12.636;2023-03-01T16:24:16;3.30;99.90
4759;DHT22;2393;50.560;12.636;2023-03-01T16:26:44;3.40;99.90
4759;DHT22;2393;50.560;12.636;2023-03-01T16:29:12;3.40;99.90